sensor_id;sensor_type;location;lat;lon;timestamp;pressure;altitude;pressure_sealevel;temperature;humidity
5753;BME280;2901;42.140;24.760;2024-01-11T00:01:12;100663.22;;;-1.31;100.00
5753;BME280;2901;42.140;24.760;2024-01-11T00:03:38;100661.28;;;-1.35;100.00
5753;BME280;2901;42.140;24.760;2024-01-11T00:06:03;100653.34;;;-1.26;100.00
5753;BME280;2901;42.140;24.760;2024-01-11T00:08:29;100656.47;;;-1.30;100.00
5753;BME280;2901;42.140;24.760;2024-01-11T00:10:55;100654.53;;;-1.34;100.00
5753;BME280;2901;42.140;24.760;2024-01-11T00:13:20;100656.13;;;-1.36;100.00
5753;BME280;2901;42.140;24.760;2024-01-11T00:15:46;100653.66;;;-1.35;100.00
5753;BME280;2901;42.140;24.760;2024-01-11T00:18:11;100659.44;;;-1.37;100.00
5753;BME280;2901;42.140;24.760;2024-01-11T00:20:37;100647.22;;;-1.30;100.00
5753;BME280;2901;42.140;24.760;2024-01-11T00:23:02;100651.50;;;-1.29;100.00
5753;BME280;2901;42.140;24.760;2024-01-11T00:25:28;100649.38;;;-1.36;100.00
5753;BME280;2901;42.140;24.760;2024-01-11T00:27:53;100653.66;;;-1.35;100.00
5753;BME280;2901;42.140;24.760;2024-01-11T00:30:18;100643.06;;;-1.42;100.00
5753;BME280;2901;42.140;24.760;2024-01-11T00:32:44;100638.25;;;-1.38;100.00
5753;BME280;2901;42.140;24.760;2024-01-11T00:35:09;100637.66;;;-1.34;100.00
5753;BME280;2901;42.140;24.760;2024-01-11T00:37:34;100635.28;;;-1.31;100.00
5753;BME280;2901;42.140;24.760;2024-01-11T00:40:00;100631.63;;;-1.36;100.00
5753;BME280;2901;42.140;24.760;2024-01-11T00:42:25;100626.53;;;-1.36;100.00
5753;BME280;2901;42.140;24.760;2024-01-11T00:44:51;100622.34;;;-1.35;100.00
5753;BME280;2901;42.140;24.760;2024-01-11T00:47:16;100603.31;;;-1.42;100.00
5753;BME280;2901;42.140;24.760;2024-01-11T00:49:42;100612.69;;;-1.26;100.00
5753;BME280;2901;42.140;24.760;2024-01-11T00:52:08;100608.06;;;-1.19;100.00
5753;BME280;2901;42.140;24.760;2024-01-11T00:54:35;100595.88;;;-1.10;100.00
5753;BME280;2901;42.140;24.760;2024-01-11T00:57:00;100599.72;;;-1.01;100.00
5753;BME280;2901;42.140;24.760;2024-01-11T00:59:26;100602.34;;;-1.00;100.00
5753;BME280;2901;42.140;24.760;2024-01-11T01:01:52;100586.56;;;-0.94;100.00
5753;BME280;2901;42.140;24.760;2024-01-11T01:04:17;100584.47;;;-0.87;100.00
5753;BME280;2901;42.140;24.760;2024-01-11T01:06:43;100585.69;;;-0.80;100.00
5753;BME280;2901;42.140;24.760;2024-01-11T01:09:08;100568.50;;;-0.84;100.00
5753;BME280;2901;42.140;24.760;2024-01-11T01:11:34;100583.03;;;-0.67;100.00
5753;BME280;2901;42.140;24.760;2024-01-11T01:13:59;100561.63;;;-0.71;100.00
5753;BME280;2901;42.140;24.760;2024-01-11T01:16:25;100577.81;;;-0.54;100.00
5753;BME280;2901;42.140;24.760;2024-01-11T01:18:50;100581.47;;;-0.49;100.00
5753;BME280;2901;42.140;24.760;2024-01-11T01:21:16;100581.75;;;-0.44;100.00
5753;BME280;2901;42.140;24.760;2024-01-11T01:23:41;100557.03;;;-0.47;100.00
5753;BME280;2901;42.140;24.760;2024-01-11T01:26:07;100568.72;;;-0.34;100.00
5753;BME280;2901;42.140;24.760;2024-01-11T01:28:32;100568.16;;;-0.29;100.00
5753;BME280;2901;42.140;24.760;2024-01-11T01:30:58;100568.66;;;-0.20;100.00
5753;BME280;2901;42.140;24.760;2024-01-11T01:33:23;100568.84;;;-0.17;100.00
5753;BME280;2901;42.140;24.760;2024-01-11T01:35:49;100555.22;;;-0.17;100.00
5753;BME280;2901;42.140;24.760;2024-01-11T01:38:14;100564.22;;;-0.08;100.00
5753;BME280;2901;42.140;24.760;2024-01-11T01:40:39;100562.63;;;-0.06;100.00
5753;BME280;2901;42.140;24.760;2024-01-11T01:43:08;100564.22;;;-0.08;100.00
5753;BME280;2901;42.140;24.760;2024-01-11T01:45:34;100560.88;;;-0.07;100.00
5753;BME280;2901;42.140;24.760;2024-01-11T01:48:00;100552.28;;;-0.09;100.00
5753;BME280;2901;42.140;24.760;2024-01-11T01:50:26;100553.22;;;-0.07;100.00
5753;BME280;2901;42.140;24.760;2024-01-11T01:52:52;100558.16;;;-0.10;100.00
5753;BME280;2901;42.140;24.760;2024-01-11T01:55:18;100544.50;;;-0.12;100.00
5753;BME280;2901;42.140;24.760;2024-01-11T01:57:46;100542.66;;;-0.14;100.00
5753;BME280;2901;42.140;24.760;2024-01-11T02:00:12;100541.63;;;-0.18;100.00
5753;BME280;2901;42.140;24.760;2024-01-11T02:02:41;100537.94;;;-0.23;100.00
5753;BME280;2901;42.140;24.760;2024-01-11T02:05:08;100530.47;;;-0.20;100.00
5753;BME280;2901;42.140;24.760;2024-01-11T02:07:35;100532.34;;;-0.17;100.00
5753;BME280;2901;42.140;24.760;2024-01-11T02:10:01;100528.91;;;-0.18;100.00
5753;BME280;2901;42.140;24.760;2024-01-11T02:12:27;100532.34;;;-0.17;100.00
5753;BME280;2901;42.140;24.760;2024-01-11T02:14:53;100529.84;;;-0.16;100.00
5753;BME280;2901;42.140;24.760;2024-01-11T02:17:18;100531.50;;;-0.16;100.00
5753;BME280;2901;42.140;24.760;2024-01-11T02:19:44;100528.13;;;-0.17;100.00
5753;BME280;2901;42.140;24.760;2024-01-11T02:22:18;100522.84;;;-0.20;100.00
5753;BME280;2901;42.140;24.760;2024-01-11T02:24:45;100518.47;;;-0.22;100.00
5753;BME280;2901;42.140;24.760;2024-01-11T02:27:10;100509.06;;;-0.39;100.00
5753;BME280;2901;42.140;24.760;2024-01-11T02:29:36;100514.78;;;-0.60;100.00
5753;BME280;2901;42.140;24.760;2024-01-11T02:32:02;100516.41;;;-0.76;100.00
5753;BME280;2901;42.140;24.760;2024-01-11T02:34:28;100515.72;;;-0.88;100.00
5753;BME280;2901;42.140;24.760;2024-01-11T02:36:54;100516.91;;;-0.98;100.00
5753;BME280;2901;42.140;24.760;2024-01-11T02:39:22;100517.09;;;-1.10;100.00
5753;BME280;2901;42.140;24.760;2024-01-11T02:41:50;100515.78;;;-1.18;100.00
5753;BME280;2901;42.140;24.760;2024-01-11T02:44:16;100517.72;;;-1.28;100.00
5753;BME280;2901;42.140;24.760;2024-01-11T02:46:41;100519.34;;;-1.45;100.00
5753;BME280;2901;42.140;24.760;2024-01-11T02:49:07;100513.69;;;-1.54;100.00
5753;BME280;2901;42.140;24.760;2024-01-11T02:51:32;100494.16;;;-1.84;100.00
5753;BME280;2901;42.140;24.760;2024-01-11T02:53:58;100520.50;;;-1.68;100.00
5753;BME280;2901;42.140;24.760;2024-01-11T02:56:23;100518.09;;;-1.66;100.00
5753;BME280;2901;42.140;24.760;2024-01-11T02:58:49;100510.19;;;-1.71;100.00
5753;BME280;2901;42.140;24.760;2024-01-11T03:01:14;100518.44;;;-1.75;100.00
5753;BME280;2901;42.140;24.760;2024-01-11T03:03:40;100508.06;;;-1.78;100.00
5753;BME280;2901;42.140;24.760;2024-01-11T03:06:05;100512.97;;;-1.81;100.00
5753;BME280;2901;42.140;24.760;2024-01-11T03:08:31;100507.06;;;-1.81;100.00
5753;BME280;2901;42.140;24.760;2024-01-11T03:10:56;100515.34;;;-1.84;100.00
5753;BME280;2901;42.140;24.760;2024-01-11T03:13:23;100501.88;;;-1.83;100.00
5753;BME280;2901;42.140;24.760;2024-01-11T03:15:48;100492.00;;;-1.78;100.00
5753;BME280;2901;42.140;24.760;2024-01-11T03:18:14;100508.34;;;-1.73;100.00
5753;BME280;2901;42.140;24.760;2024-01-11T03:20:39;100495.84;;;-1.70;100.00
5753;BME280;2901;42.140;24.760;2024-01-11T03:23:05;100490.75;;;-1.70;100.00
5753;BME280;2901;42.140;24.760;2024-01-11T03:25:30;100493.47;;;-1.67;100.00
5753;BME280;2901;42.140;24.760;2024-01-11T03:27:58;100502.50;;;-1.58;100.00
5753;BME280;2901;42.140;24.760;2024-01-11T03:30:24;100499.28;;;-1.55;100.00
5753;BME280;2901;42.140;24.760;2024-01-11T03:32:49;100499.69;;;-1.47;100.00
5753;BME280;2901;42.140;24.760;2024-01-11T03:35:15;100490.25;;;-1.50;100.00
5753;BME280;2901;42.140;24.760;2024-01-11T03:37:40;100481.94;;;-1.62;100.00
5753;BME280;2901;42.140;24.760;2024-01-11T03:40:06;100496.19;;;-1.64;100.00
5753;BME280;2901;42.140;24.760;2024-01-11T03:42:31;100482.69;;;-1.78;100.00
5753;BME280;2901;42.140;24.760;2024-01-11T03:44:57;100494.28;;;-1.68;100.00
5753;BME280;2901;42.140;24.760;2024-01-11T03:47:22;100492.84;;;-1.78;100.00
5753;BME280;2901;42.140;24.760;2024-01-11T03:49:48;100488.75;;;-1.76;100.00
5753;BME280;2901;42.140;24.760;2024-01-11T03:52:13;100490.38;;;-1.91;100.00
5753;BME280;2901;42.140;24.760;2024-01-11T03:54:39;100486.44;;;-2.00;100.00
5753;BME280;2901;42.140;24.760;2024-01-11T03:57:04;100493.09;;;-2.02;100.00
5753;BME280;2901;42.140;24.760;2024-01-11T03:59:30;100476.63;;;-2.09;100.00
5753;BME280;2901;42.140;24.760;2024-01-11T04:01:57;100482.31;;;-2.13;100.00
5753;BME280;2901;42.140;24.760;2024-01-11T04:04:23;100471.03;;;-2.18;100.00
5753;BME280;2901;42.140;24.760;2024-01-11T04:06:48;100480.22;;;-2.05;100.00
5753;BME280;2901;42.140;24.760;2024-01-11T04:09:14;100477.63;;;-1.92;100.00
5753;BME280;2901;42.140;24.760;2024-01-11T04:11:40;100448.53;;;-1.97;100.00
5753;BME280;2901;42.140;24.760;2024-01-11T04:14:05;100473.41;;;-1.77;100.00
5753;BME280;2901;42.140;24.760;2024-01-11T04:16:31;100465.63;;;-1.80;100.00
5753;BME280;2901;42.140;24.760;2024-01-11T04:18:57;100465.81;;;-1.77;100.00
5753;BME280;2901;42.140;24.760;2024-01-11T04:21:25;100464.44;;;-1.72;100.00
5753;BME280;2901;42.140;24.760;2024-01-11T04:23:53;100460.81;;;-1.61;100.00
5753;BME280;2901;42.140;24.760;2024-01-11T04:26:19;100468.16;;;-1.51;100.00
5753;BME280;2901;42.140;24.760;2024-01-11T04:28:45;100469.22;;;-1.47;100.00
5753;BME280;2901;42.140;24.760;2024-01-11T04:31:10;100455.72;;;-1.46;100.00
5753;BME280;2901;42.140;24.760;2024-01-11T04:33:40;100459.06;;;-1.47;100.00
5753;BME280;2901;42.140;24.760;2024-01-11T04:36:05;100470.59;;;-1.38;100.00
5753;BME280;2901;42.140;24.760;2024-01-11T04:38:31;100465.69;;;-1.35;100.00
5753;BME280;2901;42.140;24.760;2024-01-11T04:40:56;100469.22;;;-1.33;100.00
5753;BME280;2901;42.140;24.760;2024-01-11T04:43:21;100471.75;;;-1.33;100.00
5753;BME280;2901;42.140;24.760;2024-01-11T04:45:47;100472.28;;;-1.38;100.00
5753;BME280;2901;42.140;24.760;2024-01-11T04:48:13;100461.53;;;-1.49;100.00
5753;BME280;2901;42.140;24.760;2024-01-11T04:50:38;100454.34;;;-1.56;100.00
5753;BME280;2901;42.140;24.760;2024-01-11T04:53:04;100466.88;;;-1.59;100.00
5753;BME280;2901;42.140;24.760;2024-01-11T04:55:29;100466.34;;;-1.68;100.00
5753;BME280;2901;42.140;24.760;2024-01-11T04:57:54;100457.59;;;-1.73;100.00
5753;BME280;2901;42.140;24.760;2024-01-11T05:00:20;100451.09;;;-1.83;100.00
5753;BME280;2901;42.140;24.760;2024-01-11T05:02:45;100462.91;;;-1.83;100.00
5753;BME280;2901;42.140;24.760;2024-01-11T05:05:11;100458.44;;;-1.87;100.00
5753;BME280;2901;42.140;24.760;2024-01-11T05:07:36;100428.06;;;-2.00;100.00
5753;BME280;2901;42.140;24.760;2024-01-11T05:10:02;100450.66;;;-1.90;100.00
5753;BME280;2901;42.140;24.760;2024-01-11T05:12:27;100451.91;;;-1.98;100.00
5753;BME280;2901;42.140;24.760;2024-01-11T05:14:53;100449.53;;;-1.95;100.00
5753;BME280;2901;42.140;24.760;2024-01-11T05:17:18;100451.63;;;-1.88;100.00
5753;BME280;2901;42.140;24.760;2024-01-11T05:19:44;100451.81;;;-1.85;100.00
5753;BME280;2901;42.140;24.760;2024-01-11T05:22:09;100443.78;;;-1.78;100.00
5753;BME280;2901;42.140;24.760;2024-01-11T05:24:34;100440.19;;;-1.82;100.00
5753;BME280;2901;42.140;24.760;2024-01-11T05:27:00;100447.69;;;-1.83;100.00
5753;BME280;2901;42.140;24.760;2024-01-11T05:29:25;100435.16;;;-1.80;100.00
5753;BME280;2901;42.140;24.760;2024-01-11T05:31:50;100420.19;;;-1.90;100.00
5753;BME280;2901;42.140;24.760;2024-01-11T05:34:16;100439.75;;;-1.75;100.00
5753;BME280;2901;42.140;24.760;2024-01-11T05:36:41;100435.97;;;-1.67;100.00
5753;BME280;2901;42.140;24.760;2024-01-11T05:39:07;100430.53;;;-1.73;100.00
5753;BME280;2901;42.140;24.760;2024-01-11T05:41:32;100429.13;;;-1.68;100.00
5753;BME280;2901;42.140;24.760;2024-01-11T05:43:57;100418.97;;;-1.68;100.00
5753;BME280;2901;42.140;24.760;2024-01-11T05:46:23;100430.34;;;-1.61;100.00
5753;BME280;2901;42.140;24.760;2024-01-11T05:48:48;100425.44;;;-1.58;100.00
5753;BME280;2901;42.140;24.760;2024-01-11T05:51:13;100423.88;;;-1.56;100.00
5753;BME280;2901;42.140;24.760;2024-01-11T05:53:39;100427.38;;;-1.54;100.00
5753;BME280;2901;42.140;24.760;2024-01-11T05:56:08;100421.78;;;-1.48;100.00
5753;BME280;2901;42.140;24.760;2024-01-11T05:58:34;100414.78;;;-1.52;100.00
5753;BME280;2901;42.140;24.760;2024-01-11T06:01:02;100422.13;;;-1.57;100.00
5753;BME280;2901;42.140;24.760;2024-01-11T06:03:28;100418.47;;;-1.62;100.00
5753;BME280;2901;42.140;24.760;2024-01-11T06:05:53;100424.66;;;-1.57;100.00
5753;BME280;2901;42.140;24.760;2024-01-11T06:08:18;100432.44;;;-1.54;100.00
5753;BME280;2901;42.140;24.760;2024-01-11T06:10:44;100425.72;;;-1.53;100.00
5753;BME280;2901;42.140;24.760;2024-01-11T06:13:09;100423.94;;;-1.54;100.00
5753;BME280;2901;42.140;24.760;2024-01-11T06:15:34;100422.13;;;-1.57;100.00
5753;BME280;2901;42.140;24.760;2024-01-11T06:18:00;100415.22;;;-1.60;100.00
5753;BME280;2901;42.140;24.760;2024-01-11T06:20:25;100406.38;;;-1.66;100.00
5753;BME280;2901;42.140;24.760;2024-01-11T06:22:51;100413.72;;;-1.71;100.00
5753;BME280;2901;42.140;24.760;2024-01-11T06:25:17;100409.34;;;-1.73;100.00
5753;BME280;2901;42.140;24.760;2024-01-11T06:27:43;100409.19;;;-1.76;100.00
5753;BME280;2901;42.140;24.760;2024-01-11T06:30:09;100409.00;;;-1.79;100.00
5753;BME280;2901;42.140;24.760;2024-01-11T06:32:35;100409.00;;;-1.79;100.00
5753;BME280;2901;42.140;24.760;2024-01-11T06:35:00;100403.06;;;-1.80;100.00
5753;BME280;2901;42.140;24.760;2024-01-11T06:37:27;100405.53;;;-1.81;100.00
5753;BME280;2901;42.140;24.760;2024-01-11T06:39:52;100408.22;;;-1.78;100.00
5753;BME280;2901;42.140;24.760;2024-01-11T06:42:18;100404.00;;;-1.78;100.00
5753;BME280;2901;42.140;24.760;2024-01-11T06:44:43;100385.81;;;-1.85;100.00
5753;BME280;2901;42.140;24.760;2024-01-11T06:47:08;100411.44;;;-1.66;100.00
5753;BME280;2901;42.140;24.760;2024-01-11T06:49:34;100410.75;;;-1.49;100.00
5753;BME280;2901;42.140;24.760;2024-01-11T06:52:03;100404.94;;;-1.32;100.00
5753;BME280;2901;42.140;24.760;2024-01-11T06:54:29;100409.19;;;-1.31;100.00
5753;BME280;2901;42.140;24.760;2024-01-11T06:56:56;100405.03;;;-1.14;100.00
5753;BME280;2901;42.140;24.760;2024-01-11T06:59:21;100404.44;;;-0.94;100.00
5753;BME280;2901;42.140;24.760;2024-01-11T07:01:47;100402.47;;;-0.83;100.00
5753;BME280;2901;42.140;24.760;2024-01-11T07:04:12;100412.97;;;-0.77;100.00
5753;BME280;2901;42.140;24.760;2024-01-11T07:06:37;100411.88;;;-0.66;100.00
5753;BME280;2901;42.140;24.760;2024-01-11T07:09:03;100405.59;;;-0.57;100.00
5753;BME280;2901;42.140;24.760;2024-01-11T07:11:29;100407.88;;;-0.45;100.00
5753;BME280;2901;42.140;24.760;2024-01-11T07:13:54;100421.16;;;-0.34;100.00
5753;BME280;2901;42.140;24.760;2024-01-11T07:16:20;100414.41;;;-0.34;100.00
5753;BME280;2901;42.140;24.760;2024-01-11T07:18:46;100411.44;;;-0.25;100.00
5753;BME280;2901;42.140;24.760;2024-01-11T07:21:11;100412.00;;;-0.15;100.00
5753;BME280;2901;42.140;24.760;2024-01-11T07:23:36;100417.69;;;-0.03;99.65
5753;BME280;2901;42.140;24.760;2024-01-11T07:26:02;100410.94;;;-0.02;98.64
5753;BME280;2901;42.140;24.760;2024-01-11T07:28:27;100406.97;;;-0.13;98.39
5753;BME280;2901;42.140;24.760;2024-01-11T07:30:53;100406.97;;;-0.13;98.38
5753;BME280;2901;42.140;24.760;2024-01-11T07:33:19;100408.09;;;-0.08;98.41
5753;BME280;2901;42.140;24.760;2024-01-11T07:35:46;100388.91;;;-0.02;98.29
5753;BME280;2901;42.140;24.760;2024-01-11T07:38:11;100402.53;;;-0.17;97.31
5753;BME280;2901;42.140;24.760;2024-01-11T07:40:36;100402.00;;;-0.28;96.55
5753;BME280;2901;42.140;24.760;2024-01-11T07:43:02;100400.19;;;-0.13;97.36
5753;BME280;2901;42.140;24.760;2024-01-11T07:45:29;100395.06;;;0.04;97.14
5753;BME280;2901;42.140;24.760;2024-01-11T07:47:55;100355.94;;;0.02;97.14
5753;BME280;2901;42.140;24.760;2024-01-11T07:50:20;100373.31;;;0.26;96.95
5753;BME280;2901;42.140;24.760;2024-01-11T07:52:46;100372.91;;;0.36;97.18
5753;BME280;2901;42.140;24.760;2024-01-11T07:55:11;100373.44;;;0.29;95.39
5753;BME280;2901;42.140;24.760;2024-01-11T07:57:38;100372.84;;;0.17;95.87
5753;BME280;2901;42.140;24.760;2024-01-11T08:00:04;100372.94;;;0.19;96.04
5753;BME280;2901;42.140;24.760;2024-01-11T08:02:32;100376.06;;;0.13;96.94
5753;BME280;2901;42.140;24.760;2024-01-11T08:04:57;100375.31;;;0.16;96.57
5753;BME280;2901;42.140;24.760;2024-01-11T08:07:25;100367.53;;;0.13;97.56
5753;BME280;2901;42.140;24.760;2024-01-11T08:09:50;100365.44;;;0.22;96.78
5753;BME280;2901;42.140;24.760;2024-01-11T08:12:16;100360.13;;;0.35;97.19
5753;BME280;2901;42.140;24.760;2024-01-11T08:14:41;100355.19;;;0.38;96.92
5753;BME280;2901;42.140;24.760;2024-01-11T08:17:07;100355.81;;;0.34;97.23
5753;BME280;2901;42.140;24.760;2024-01-11T08:19:33;100355.88;;;0.53;97.83
5753;BME280;2901;42.140;24.760;2024-01-11T08:21:59;100340.81;;;0.58;96.95
5753;BME280;2901;42.140;24.760;2024-01-11T08:24:24;100348.47;;;0.75;96.99
5753;BME280;2901;42.140;24.760;2024-01-11T08:26:52;100349.00;;;0.87;96.48
5753;BME280;2901;42.140;24.760;2024-01-11T08:29:18;100348.88;;;1.03;95.89
5753;BME280;2901;42.140;24.760;2024-01-11T08:31:47;100344.88;;;1.09;95.34
5753;BME280;2901;42.140;24.760;2024-01-11T08:34:12;100342.91;;;1.22;94.73
5753;BME280;2901;42.140;24.760;2024-01-11T08:36:38;100346.56;;;1.27;94.34
5753;BME280;2901;42.140;24.760;2024-01-11T08:39:04;100348.22;;;1.27;94.10
5753;BME280;2901;42.140;24.760;2024-01-11T08:41:36;100343.34;;;1.31;94.46
5753;BME280;2901;42.140;24.760;2024-01-11T08:44:03;100322.53;;;1.41;93.80
5753;BME280;2901;42.140;24.760;2024-01-11T08:46:30;100320.94;;;1.64;93.75
5753;BME280;2901;42.140;24.760;2024-01-11T08:48:58;100324.75;;;1.74;94.34
5753;BME280;2901;42.140;24.760;2024-01-11T08:51:23;100325.31;;;1.87;93.50
5753;BME280;2901;42.140;24.760;2024-01-11T08:53:49;100312.59;;;1.89;92.85
5753;BME280;2901;42.140;24.760;2024-01-11T08:56:14;100313.41;;;2.08;92.54
5753;BME280;2901;42.140;24.760;2024-01-11T08:58:42;100310.84;;;2.08;91.94
5753;BME280;2901;42.140;24.760;2024-01-11T09:01:07;100295.66;;;2.12;92.71
5753;BME280;2901;42.140;24.760;2024-01-11T09:03:35;100293.97;;;2.12;91.11
5753;BME280;2901;42.140;24.760;2024-01-11T09:06:02;100296.47;;;2.11;92.73
5753;BME280;2901;42.140;24.760;2024-01-11T09:08:28;100293.38;;;2.40;92.54
5753;BME280;2901;42.140;24.760;2024-01-11T09:10:55;100286.16;;;2.52;90.32
5753;BME280;2901;42.140;24.760;2024-01-11T09:13:20;100273.97;;;2.45;90.02
5753;BME280;2901;42.140;24.760;2024-01-11T09:15:46;100275.59;;;2.65;89.72
5753;BME280;2901;42.140;24.760;2024-01-11T09:18:11;100270.50;;;2.89;88.85
5753;BME280;2901;42.140;24.760;2024-01-11T09:20:37;100263.94;;;2.95;87.70
5753;BME280;2901;42.140;24.760;2024-01-11T09:23:02;100262.69;;;3.08;87.21
5753;BME280;2901;42.140;24.760;2024-01-11T09:25:31;100264.16;;;3.01;87.50
5753;BME280;2901;42.140;24.760;2024-01-11T09:27:57;100258.13;;;2.99;87.02
5753;BME280;2901;42.140;24.760;2024-01-11T09:30:22;100249.28;;;3.15;86.84
5753;BME280;2901;42.140;24.760;2024-01-11T09:32:48;100245.47;;;3.04;85.71
5753;BME280;2901;42.140;24.760;2024-01-11T09:35:14;100242.78;;;2.99;86.04
5753;BME280;2901;42.140;24.760;2024-01-11T09:37:39;100247.41;;;3.09;87.26
5753;BME280;2901;42.140;24.760;2024-01-11T09:40:05;100219.34;;;3.12;85.68
5753;BME280;2901;42.140;24.760;2024-01-11T09:42:38;100226.78;;;3.30;85.06
5753;BME280;2901;42.140;24.760;2024-01-11T09:45:08;100221.00;;;3.36;84.65
5753;BME280;2901;42.140;24.760;2024-01-11T09:47:35;100217.97;;;3.47;82.79
5753;BME280;2901;42.140;24.760;2024-01-11T09:50:02;100205.25;;;3.49;83.13
5753;BME280;2901;42.140;24.760;2024-01-11T09:52:28;100216.69;;;3.60;83.08
5753;BME280;2901;42.140;24.760;2024-01-11T09:54:54;100201.75;;;3.72;83.01
5753;BME280;2901;42.140;24.760;2024-01-11T09:57:24;100193.19;;;3.98;84.27
5753;BME280;2901;42.140;24.760;2024-01-11T09:59:54;100191.88;;;4.12;81.76
5753;BME280;2901;42.140;24.760;2024-01-11T10:02:19;100191.41;;;4.26;80.49
5753;BME280;2901;42.140;24.760;2024-01-11T10:04:46;100176.13;;;4.29;79.95
5753;BME280;2901;42.140;24.760;2024-01-11T10:07:12;100173.31;;;4.49;79.51
5753;BME280;2901;42.140;24.760;2024-01-11T10:09:38;100167.28;;;4.47;79.05
5753;BME280;2901;42.140;24.760;2024-01-11T10:12:04;100167.69;;;4.61;79.26
5753;BME280;2901;42.140;24.760;2024-01-11T10:14:30;100162.66;;;4.65;nan
5753;BME280;2901;42.140;24.760;2024-01-11T10:16:56;100152.41;;;4.97;80.84
5753;BME280;2901;42.140;24.760;2024-01-11T10:19:22;100147.19;;;5.27;78.64
5753;BME280;2901;42.140;24.760;2024-01-11T10:21:47;100147.91;;;5.55;78.17
5753;BME280;2901;42.140;24.760;2024-01-11T10:24:18;100138.28;;;5.84;77.51
5753;BME280;2901;42.140;24.760;2024-01-11T10:26:43;100136.81;;;5.92;74.11
5753;BME280;2901;42.140;24.760;2024-01-11T10:29:09;100133.84;;;5.77;73.86
5753;BME280;2901;42.140;24.760;2024-01-11T10:31:36;100131.88;;;5.65;73.09
5753;BME280;2901;42.140;24.760;2024-01-11T10:34:04;100133.28;;;5.53;73.86
5753;BME280;2901;42.140;24.760;2024-01-11T10:36:32;100115.00;;;5.41;74.73
5753;BME280;2901;42.140;24.760;2024-01-11T10:39:01;100119.84;;;5.63;72.48
5753;BME280;2901;42.140;24.760;2024-01-11T10:41:32;100104.97;;;5.87;72.52
5753;BME280;2901;42.140;24.760;2024-01-11T10:44:01;100110.84;;;6.20;72.06
5753;BME280;2901;42.140;24.760;2024-01-11T10:46:28;100092.31;;;6.37;70.25
5753;BME280;2901;42.140;24.760;2024-01-11T10:48:56;100099.53;;;6.56;67.16
5753;BME280;2901;42.140;24.760;2024-01-11T10:51:25;100084.81;;;6.47;68.90
5753;BME280;2901;42.140;24.760;2024-01-11T10:53:53;100081.31;;;6.44;68.04
5753;BME280;2901;42.140;24.760;2024-01-11T10:56:19;100079.16;;;6.66;68.33
5753;BME280;2901;42.140;24.760;2024-01-11T10:58:45;100073.88;;;6.59;66.21
5753;BME280;2901;42.140;24.760;2024-01-11T11:01:12;100083.22;;;6.54;65.45
5753;BME280;2901;42.140;24.760;2024-01-11T11:03:38;100074.63;;;6.52;67.78
5753;BME280;2901;42.140;24.760;2024-01-11T11:06:05;100070.25;;;6.49;66.39
5753;BME280;2901;42.140;24.760;2024-01-11T11:08:36;100057.34;;;6.46;66.24
5753;BME280;2901;42.140;24.760;2024-01-11T11:11:03;100059.41;;;6.65;66.81
5753;BME280;2901;42.140;24.760;2024-01-11T11:13:31;100052.97;;;6.89;66.39
5753;BME280;2901;42.140;24.760;2024-01-11T11:15:57;100050.72;;;7.07;64.99
5753;BME280;2901;42.140;24.760;2024-01-11T11:18:23;100041.66;;;7.31;65.27
5753;BME280;2901;42.140;24.760;2024-01-11T11:20:50;100041.72;;;7.36;64.81
5753;BME280;2901;42.140;24.760;2024-01-11T11:23:17;100049.38;;;7.30;64.16
5753;BME280;2901;42.140;24.760;2024-01-11T11:25:45;100038.38;;;7.42;63.97
5753;BME280;2901;42.140;24.760;2024-01-11T11:28:12;100026.50;;;7.53;63.57
5753;BME280;2901;42.140;24.760;2024-01-11T11:30:40;100018.78;;;7.53;62.53
5753;BME280;2901;42.140;24.760;2024-01-11T11:33:23;100024.78;;;7.52;63.25
5753;BME280;2901;42.140;24.760;2024-01-11T11:35:52;100006.50;;;7.34;63.35
5753;BME280;2901;42.140;24.760;2024-01-11T11:38:21;100005.63;;;7.33;64.16
5753;BME280;2901;42.140;24.760;2024-01-11T11:40:48;100003.13;;;7.39;61.01
5753;BME280;2901;42.140;24.760;2024-01-11T11:43:17;99998.66;;;7.26;60.55
5753;BME280;2901;42.140;24.760;2024-01-11T11:45:44;99991.75;;;7.23;61.42
5753;BME280;2901;42.140;24.760;2024-01-11T11:51:07;99981.75;;;7.48;61.73
5753;BME280;2901;42.140;24.760;2024-01-11T11:53:34;99974.94;;;7.50;61.12
5753;BME280;2901;42.140;24.760;2024-01-11T11:56:00;99963.66;;;7.40;60.42
5753;BME280;2901;42.140;24.760;2024-01-11T11:58:27;99955.97;;;7.45;59.40
5753;BME280;2901;42.140;24.760;2024-01-11T12:00:53;99946.72;;;7.59;59.27
5753;BME280;2901;42.140;24.760;2024-01-11T12:03:18;99938.97;;;7.59;59.31
5753;BME280;2901;42.140;24.760;2024-01-11T12:05:44;99940.16;;;7.85;59.30
5753;BME280;2901;42.140;24.760;2024-01-11T12:08:09;99936.84;;;7.95;57.64
5753;BME280;2901;42.140;24.760;2024-01-11T12:10:36;99929.00;;;7.88;55.73
5753;BME280;2901;42.140;24.760;2024-01-11T12:13:01;99917.88;;;7.92;55.78
5753;BME280;2901;42.140;24.760;2024-01-11T12:15:27;99919.78;;;8.06;55.85
5753;BME280;2901;42.140;24.760;2024-01-11T12:17:59;99911.19;;;8.09;56.84
5753;BME280;2901;42.140;24.760;2024-01-11T12:20:24;99910.41;;;8.16;56.14
5753;BME280;2901;42.140;24.760;2024-01-11T12:22:50;99908.66;;;8.13;55.06
5753;BME280;2901;42.140;24.760;2024-01-11T12:25:15;99907.00;;;8.21;55.50
5753;BME280;2901;42.140;24.760;2024-01-11T12:27:42;99902.72;;;8.23;55.95
5753;BME280;2901;42.140;24.760;2024-01-11T12:30:07;99903.69;;;8.28;55.64
5753;BME280;2901;42.140;24.760;2024-01-11T12:32:36;99893.09;;;8.04;55.56
5753;BME280;2901;42.140;24.760;2024-01-11T12:35:02;99887.81;;;7.92;57.05
5753;BME280;2901;42.140;24.760;2024-01-11T12:37:30;99885.41;;;8.09;57.37
5753;BME280;2901;42.140;24.760;2024-01-11T12:39:58;99883.72;;;8.12;56.28
5753;BME280;2901;42.140;24.760;2024-01-11T12:42:25;99880.31;;;8.13;55.56
5753;BME280;2901;42.140;24.760;2024-01-11T12:44:50;99872.59;;;8.16;54.91
5753;BME280;2901;42.140;24.760;2024-01-11T12:47:17;99868.44;;;8.33;54.13
5753;BME280;2901;42.140;24.760;2024-01-11T12:49:43;99878.88;;;8.47;53.45
5753;BME280;2901;42.140;24.760;2024-01-11T12:52:20;99866.78;;;8.39;53.64
5753;BME280;2901;42.140;24.760;2024-01-11T12:54:46;99872.03;;;8.46;53.49
5753;BME280;2901;42.140;24.760;2024-01-11T12:57:12;99863.50;;;8.61;52.86